createdAt,value
2023-06-30T00:01:30.294Z,99.90
2023-06-30T00:03:58.065Z,99.90
2023-06-30T00:06:25.283Z,99.90
2023-06-30T00:08:52.579Z,99.90
2023-06-30T00:11:24.712Z,99.90
2023-06-30T00:13:53.336Z,99.90
2023-06-30T00:16:20.928Z,99.90
2023-06-30T00:18:48.235Z,99.90
2023-06-30T00:21:15.333Z,99.90
2023-06-30T00:23:42.316Z,99.90
2023-06-30T00:26:09.320Z,99.90
2023-06-30T00:28:37.215Z,99.90
2023-06-30T00:31:04.257Z,99.90
2023-06-30T00:33:31.259Z,99.90
2023-06-30T00:35:58.269Z,99.90
2023-06-30T00:38:25.266Z,99.90
2023-06-30T00:40:52.301Z,99.90
2023-06-30T00:43:19.298Z,99.90
2023-06-30T00:45:46.586Z,99.90
2023-06-30T00:48:14.029Z,99.90
2023-06-30T00:50:41.047Z,99.90
2023-06-30T00:53:08.070Z,99.90
2023-06-30T00:55:36.174Z,99.90
2023-06-30T00:58:03.197Z,99.90
2023-06-30T01:00:30.310Z,99.90
2023-06-30T01:03:21.345Z,99.90
2023-06-30T01:06:00.718Z,99.90
2023-06-30T01:08:49.335Z,99.90
2023-06-30T01:11:17.203Z,99.90
2023-06-30T01:13:46.053Z,99.90
2023-06-30T01:16:14.179Z,99.90
2023-06-30T01:18:43.491Z,99.90
2023-06-30T01:21:14.934Z,99.90
2023-06-30T01:23:48.789Z,99.90
2023-06-30T01:26:17.020Z,99.90
2023-06-30T01:28:44.859Z,99.90
2023-06-30T01:31:12.396Z,99.90
2023-06-30T01:33:40.484Z,99.90
2023-06-30T01:36:09.457Z,99.90
2023-06-30T01:38:36.553Z,99.90
2023-06-30T01:41:06.111Z,99.90
2023-06-30T01:43:34.205Z,99.90
2023-06-30T01:46:01.636Z,99.90
2023-06-30T01:48:29.355Z,99.90
2023-06-30T01:51:01.581Z,99.90
2023-06-30T01:53:28.794Z,99.90
2023-06-30T01:55:56.353Z,99.90
2023-06-30T01:58:23.467Z,99.90
2023-06-30T02:00:50.481Z,99.90
2023-06-30T02:03:17.538Z,99.90
2023-06-30T02:05:44.863Z,99.90
2023-06-30T02:08:11.998Z,99.90
2023-06-30T02:10:38.978Z,99.90
2023-06-30T02:13:06.004Z,99.90
2023-06-30T02:15:32.995Z,99.90
2023-06-30T02:18:00.057Z,99.90
2023-06-30T02:20:27.271Z,99.90
2023-06-30T02:22:54.631Z,99.90
2023-06-30T02:25:21.894Z,99.90
2023-06-30T02:27:48.968Z,99.90
2023-06-30T02:30:16.100Z,99.90
2023-06-30T02:32:43.291Z,99.90
2023-06-30T02:35:10.943Z,99.90
2023-06-30T02:37:38.593Z,99.90
2023-06-30T02:40:06.875Z,99.90
2023-06-30T02:42:33.897Z,99.90
2023-06-30T02:45:00.914Z,99.90
2023-06-30T02:47:27.943Z,99.90
2023-06-30T02:49:54.999Z,99.90
2023-06-30T02:52:21.958Z,99.90
2023-06-30T02:54:49.029Z,99.90
2023-06-30T02:57:15.988Z,99.90
2023-06-30T02:59:42.954Z,99.90
2023-06-30T03:02:10.195Z,99.90
2023-06-30T03:04:37.324Z,99.90
2023-06-30T03:07:04.550Z,99.90
2023-06-30T03:09:31.544Z,99.90
2023-06-30T03:11:58.529Z,99.90
2023-06-30T03:14:25.465Z,99.90
2023-06-30T03:16:52.559Z,99.90
2023-06-30T03:19:19.613Z,99.90
2023-06-30T03:21:46.655Z,99.90
2023-06-30T03:24:13.717Z,99.90
2023-06-30T03:26:40.725Z,99.90
2023-06-30T03:29:07.678Z,99.90
2023-06-30T03:31:34.629Z,99.90
2023-06-30T03:34:01.690Z,99.90
2023-06-30T03:36:28.808Z,99.90
2023-06-30T03:38:55.806Z,99.90
2023-06-30T03:41:22.841Z,99.90
2023-06-30T03:43:49.882Z,99.90
2023-06-30T03:46:21.507Z,99.90
2023-06-30T03:48:48.506Z,99.90
2023-06-30T03:51:16.076Z,99.90
2023-06-30T03:53:44.014Z,99.90
2023-06-30T03:56:11.473Z,99.90
2023-06-30T03:58:38.495Z,99.90
2023-06-30T04:01:06.058Z,99.90
2023-06-30T04:03:33.366Z,99.90
2023-06-30T04:06:00.614Z,99.90
2023-06-30T04:08:27.830Z,99.90
2023-06-30T04:10:54.877Z,99.60
2023-06-30T04:13:21.926Z,99.50
2023-06-30T04:15:48.937Z,99.60
2023-06-30T04:18:22.115Z,99.90
2023-06-30T04:20:49.107Z,99.90
2023-06-30T04:23:16.141Z,99.90
2023-06-30T04:25:43.367Z,99.90
2023-06-30T04:28:10.587Z,99.90
2023-06-30T04:30:37.613Z,99.90
2023-06-30T04:33:10.507Z,99.90
2023-06-30T04:35:37.562Z,99.90
2023-06-30T04:38:04.544Z,99.90
2023-06-30T04:40:31.513Z,99.90
2023-06-30T04:42:58.495Z,99.90
2023-06-30T04:45:25.463Z,99.90
2023-06-30T04:47:52.468Z,99.90
2023-06-30T04:50:19.515Z,99.90
2023-06-30T04:52:46.505Z,99.90
2023-06-30T04:55:13.514Z,99.90
2023-06-30T04:57:40.611Z,99.90
2023-06-30T05:00:09.268Z,99.90
2023-06-30T05:02:36.304Z,99.90
2023-06-30T05:05:03.537Z,99.90
2023-06-30T05:07:30.620Z,99.90
2023-06-30T05:09:57.646Z,99.90
2023-06-30T05:12:24.771Z,99.90
2023-06-30T05:14:51.744Z,99.90
2023-06-30T05:17:18.872Z,99.90
2023-06-30T05:19:45.943Z,99.90
2023-06-30T05:22:12.918Z,99.90
2023-06-30T05:24:39.931Z,99.90
2023-06-30T05:27:06.919Z,99.90
2023-06-30T05:29:34.420Z,99.90
2023-06-30T05:32:01.499Z,99.90
2023-06-30T05:34:30.007Z,99.90
2023-06-30T05:36:57.282Z,99.90
2023-06-30T05:39:24.720Z,99.90
2023-06-30T05:41:51.727Z,99.90
2023-06-30T05:44:18.903Z,99.90
2023-06-30T05:46:45.912Z,99.90
2023-06-30T05:49:13.629Z,99.90
2023-06-30T05:51:40.668Z,99.60
2023-06-30T05:54:07.729Z,97.20
2023-06-30T05:56:34.714Z,97.50
2023-06-30T05:59:01.715Z,97.30
2023-06-30T06:01:28.812Z,97.60
2023-06-30T06:03:56.677Z,96.40
2023-06-30T06:06:24.008Z,95.90
2023-06-30T06:08:51.060Z,96.10
2023-06-30T06:11:18.120Z,95.80
2023-06-30T06:13:45.105Z,93.90
2023-06-30T06:16:12.354Z,93.10
2023-06-30T06:18:39.512Z,93.50
2023-06-30T06:21:06.600Z,92.90
2023-06-30T06:23:34.110Z,93.50
2023-06-30T06:26:03.515Z,92.90
2023-06-30T06:28:30.548Z,93.10
2023-06-30T06:30:57.933Z,94.90
2023-06-30T06:33:24.921Z,94.20
2023-06-30T06:35:52.752Z,93.70
2023-06-30T06:38:20.790Z,93.50
2023-06-30T06:40:48.430Z,92.00
2023-06-30T06:43:15.510Z,92.70
2023-06-30T06:45:45.665Z,94.50
2023-06-30T06:48:28.028Z,95.80
2023-06-30T06:50:57.265Z,94.00
2023-06-30T06:53:29.529Z,91.90
2023-06-30T06:55:57.655Z,92.50
2023-06-30T06:58:30.269Z,94.00
2023-06-30T07:00:57.548Z,93.00
2023-06-30T07:05:52.114Z,93.00
2023-06-30T07:08:20.523Z,92.10
2023-06-30T07:10:48.440Z,92.40
2023-06-30T07:13:23.449Z,90.60
2023-06-30T07:15:51.659Z,88.90
2023-06-30T07:18:20.241Z,85.90
2023-06-30T07:20:52.004Z,87.80
2023-06-30T07:23:19.529Z,86.80
2023-06-30T07:25:48.031Z,86.60
2023-06-30T07:28:15.729Z,87.60
2023-06-30T07:30:45.881Z,84.20
2023-06-30T07:33:13.754Z,85.00
2023-06-30T07:35:41.126Z,87.30
2023-06-30T07:38:08.161Z,85.20
2023-06-30T07:40:46.426Z,83.00
2023-06-30T07:43:21.701Z,85.40
2023-06-30T07:45:48.999Z,83.80
2023-06-30T07:48:16.426Z,83.20
2023-06-30T07:50:54.535Z,85.10
2023-06-30T07:53:26.410Z,84.00
2023-06-30T07:55:53.493Z,84.00
2023-06-30T07:58:20.516Z,84.00
2023-06-30T08:00:47.555Z,84.40
2023-06-30T08:03:21.310Z,85.00
2023-06-30T08:05:49.034Z,85.80
2023-06-30T08:08:16.481Z,83.40
2023-06-30T08:10:44.949Z,78.30
2023-06-30T08:13:12.225Z,81.60
2023-06-30T08:15:39.279Z,80.20
2023-06-30T08:18:10.155Z,81.40
2023-06-30T08:20:38.050Z,81.40
2023-06-30T08:23:05.499Z,78.00
2023-06-30T08:25:32.494Z,77.20
2023-06-30T08:28:00.497Z,77.50
2023-06-30T08:30:27.469Z,78.30
2023-06-30T08:32:57.638Z,80.10
2023-06-30T08:35:24.748Z,76.80
2023-06-30T08:37:53.862Z,74.20
2023-06-30T08:40:26.925Z,71.10
2023-06-30T08:42:56.358Z,72.70
2023-06-30T08:45:30.046Z,76.40
2023-06-30T08:48:03.487Z,75.20
2023-06-30T08:50:30.571Z,76.00
2023-06-30T08:52:58.753Z,78.40
2023-06-30T08:55:26.997Z,74.30
2023-06-30T08:58:00.327Z,78.20
2023-06-30T09:00:31.629Z,81.10
2023-06-30T09:03:05.924Z,81.60
2023-06-30T09:05:35.757Z,77.90
2023-06-30T09:08:09.704Z,73.00
2023-06-30T09:10:38.543Z,74.00
2023-06-30T09:13:06.766Z,76.60
2023-06-30T10:15:27.646Z,72.10
2023-06-30T10:17:56.507Z,74.70
2023-06-30T10:20:33.891Z,72.00
2023-06-30T10:23:10.593Z,73.30
2023-06-30T10:25:39.771Z,69.40
2023-06-30T10:28:10.154Z,68.70
2023-06-30T10:49:39.545Z,70.20
2023-06-30T10:52:25.982Z,66.40
2023-06-30T10:54:53.115Z,69.20
2023-06-30T10:57:20.986Z,66.80
2023-06-30T11:00:03.094Z,69.00
2023-06-30T11:02:33.005Z,67.30
2023-06-30T11:05:30.056Z,64.90
2023-06-30T11:08:02.855Z,65.60
2023-06-30T11:10:35.742Z,64.90
2023-06-30T11:13:10.494Z,64.70
2023-06-30T11:15:42.033Z,64.40
2023-06-30T11:18:25.244Z,62.70
2023-06-30T11:21:04.042Z,64.30
2023-06-30T11:23:35.290Z,64.10
2023-06-30T11:26:16.424Z,61.40
2023-06-30T11:28:45.229Z,61.40
2023-06-30T11:31:13.094Z,63.70
2023-06-30T11:33:41.801Z,62.80
2023-06-30T11:36:16.580Z,60.00
2023-06-30T11:38:50.094Z,58.20
2023-06-30T11:41:24.681Z,58.70
2023-06-30T11:43:54.083Z,57.70
2023-06-30T11:46:21.816Z,58.60
2023-06-30T11:48:50.662Z,60.50
2023-06-30T11:51:20.579Z,56.30
2023-06-30T11:53:48.009Z,57.50
2023-06-30T11:56:15.405Z,58.30
2023-06-30T11:58:52.775Z,59.40
2023-06-30T12:01:22.785Z,61.60
2023-06-30T12:04:15.935Z,59.30
2023-06-30T12:06:46.702Z,59.70
2023-06-30T12:09:13.800Z,57.50
2023-06-30T12:11:46.052Z,57.30
2023-06-30T12:14:16.345Z,57.10
2023-06-30T12:16:49.461Z,56.80
2023-06-30T12:19:16.928Z,57.50
2023-06-30T12:21:53.850Z,54.50
2023-06-30T12:24:22.507Z,58.50
2023-06-30T12:26:51.153Z,61.20
2023-06-30T12:29:18.780Z,59.50
2023-06-30T12:31:48.979Z,59.40
2023-06-30T12:34:36.344Z,58.00
2023-06-30T12:37:03.963Z,60.30
2023-06-30T12:39:30.989Z,61.10
2023-06-30T12:41:57.974Z,61.80
2023-06-30T12:44:25.049Z,59.80
2023-06-30T12:47:03.291Z,62.10
2023-06-30T12:49:33.469Z,63.60
2023-06-30T12:52:03.370Z,64.10
2023-06-30T12:54:30.876Z,64.60
2023-06-30T12:56:57.835Z,64.40
2023-06-30T12:59:24.908Z,62.20
2023-06-30T13:01:51.969Z,62.00
2023-06-30T13:04:18.993Z,60.70
2023-06-30T13:06:45.926Z,59.50
2023-06-30T13:09:12.933Z,60.00
2023-06-30T13:11:39.921Z,61.10
2023-06-30T13:14:06.872Z,61.50
2023-06-30T13:16:33.892Z,61.90
2023-06-30T13:19:01.706Z,61.00
2023-06-30T13:21:28.652Z,60.20
2023-06-30T13:23:55.754Z,58.10
2023-06-30T13:26:22.651Z,58.90
2023-06-30T13:28:49.638Z,61.20
2023-06-30T13:31:16.624Z,61.00
2023-06-30T13:33:43.517Z,59.60
2023-06-30T13:36:11.870Z,60.20
2023-06-30T13:38:38.862Z,60.10
2023-06-30T13:41:05.850Z,61.50
2023-06-30T13:43:32.872Z,62.70
2023-06-30T13:46:00.748Z,60.40
2023-06-30T13:48:28.249Z,60.10
2023-06-30T13:50:55.158Z,61.10
2023-06-30T13:53:23.903Z,60.70
2023-06-30T13:55:59.513Z,61.20
2023-06-30T13:58:26.435Z,61.60
